Time;durP1;ratioP1;P1;durP2;ratioP2;P2;SDS_P1;SDS_P2;PMS_P1;PMS_P2;Temp;Humidity;BMP_temperature;BMP_pressure;BME280_temperature;BME280_humidity;BME280_pressure;Samples;Min_cycle;Max_cycle;Signal;HPM_P1;HPM_P2
2021/05/01 00:00:58;;;;;;;4.50;4.10;;;;;;;8.67;96.35;98761.63;10374955;28;20255;-75
2021/05/01 00:06:17;;;;;;;6.53;5.03;;;;;;;8.58;96.53;98760.44;10376184;28;20177;-76
2021/05/01 00:11:36;;;;;;;5.87;4.17;;;;;;;8.77;96.58;98767.09;10360790;28;20208;-76
2021/05/01 00:16:56;;;;;;;5.23;4.23;;;;;;;8.76;95.09;98767.50;10358880;28;20219;-76
2021/05/01 00:22:15;;;;;;;4.90;3.33;;;;;;;8.65;96.86;98755.75;10375600;28;20204;-78
2021/05/01 00:27:34;;;;;;;6.17;3.37;;;;;;;8.54;99.67;98765.16;10374739;28;20176;-77
2021/05/01 00:32:52;;;;;;;6.07;4.50;;;;;;;8.55;100.00;98761.25;10373203;28;20212;-78
2021/05/01 00:38:11;;;;;;;5.27;3.50;;;;;;;8.69;99.82;98762.00;10359835;28;20212;-76
2021/05/01 00:43:30;;;;;;;4.67;3.90;;;;;;;8.65;97.35;98752.19;10374644;28;20176;-77
2021/05/01 00:48:49;;;;;;;9.57;5.20;;;;;;;8.59;96.82;98743.63;10358972;28;20643;-78
2021/05/01 00:54:08;;;;;;;9.07;4.33;;;;;;;8.47;98.97;98730.31;10373958;28;20294;-77
2021/05/01 00:59:27;;;;;;;8.27;4.20;;;;;;;8.44;100.00;98722.88;10373116;28;20176;-76
2021/05/01 01:04:46;;;;;;;4.77;3.73;;;;;;;8.50;98.76;98731.47;10359235;28;20631;-78
2021/05/01 01:10:05;;;;;;;5.30;3.83;;;;;;;8.44;99.07;98733.81;10358949;28;20212;-77
2021/05/01 01:15:26;;;;;;;4.40;3.53;;;;;;;8.56;100.00;98736.19;10357594;28;20172;-77
2021/05/01 01:20:45;;;;;;;5.47;4.90;;;;;;;8.37;100.00;98738.56;10373660;28;20695;-76
2021/05/01 01:26:04;;;;;;;7.83;4.67;;;;;;;8.58;100.00;98739.31;10358763;28;20545;-78
2021/05/01 01:31:23;;;;;;;7.13;4.77;;;;;;;8.69;100.00;98733.81;10375079;28;20237;-76
2021/05/01 01:36:42;;;;;;;5.40;4.07;;;;;;;8.58;100.00;98731.09;10381405;28;20636;-77
2021/05/01 01:42:01;;;;;;;4.87;2.97;;;;;;;8.48;100.00;98722.88;10366763;28;20231;-76
2021/05/01 01:47:20;;;;;;;5.80;4.57;;;;;;;8.53;100.00;98731.47;10379616;28;20646;-78
2021/05/01 01:52:40;;;;;;;6.87;5.00;;;;;;;8.48;100.00;98734.63;10380708;28;20208;-78
2021/05/01 01:57:59;;;;;;;5.00;4.40;;;;;;;8.36;100.00;98726.78;10366181;28;20216;-77
2021/05/01 02:03:18;;;;;;;3.10;2.73;;;;;;;8.36;100.00;98740.50;10379327;28;20655;-76
2021/05/01 02:08:37;;;;;;;6.23;5.57;;;;;;;8.28;100.00;98740.91;10365539;28;20231;-76
2021/05/01 02:13:55;;;;;;;5.67;4.10;;;;;;;8.44;100.00;98739.31;10363311;28;20236;-77
2021/05/01 02:19:14;;;;;;;3.37;3.13;;;;;;;8.45;100.00;98729.91;10379258;28;20628;-76
2021/05/01 02:24:33;;;;;;;8.67;3.07;;;;;;;8.34;100.00;98737.38;10364967;28;20227;-76
2021/05/01 02:29:52;;;;;;;6.90;4.53;;;;;;;8.34;100.00;98733.84;10378555;28;20210;-77
2021/05/01 02:35:14;;;;;;;12.17;5.90;;;;;;;8.30;100.00;98731.09;10364279;28;20180;-75
2021/05/01 02:40:35;;;;;;;7.57;5.27;;;;;;;8.26;100.00;98724.06;10378891;28;20185;-77
2021/05/01 02:45:54;;;;;;;8.00;3.97;;;;;;;8.23;100.00;98713.91;10362654;28;20590;-75
2021/05/01 02:51:13;;;;;;;7.77;5.67;;;;;;;8.12;100.00;98718.56;10363661;28;20268;-76
2021/05/01 02:56:32;;;;;;;5.40;3.40;;;;;;;8.10;100.00;98720.91;10378706;28;20181;-75
2021/05/01 03:01:51;;;;;;;6.43;3.53;;;;;;;8.22;100.00;98723.28;10377262;28;20252;-75
2021/05/01 03:07:11;;;;;;;4.83;4.33;;;;;;;8.05;100.00;98724.81;10378240;28;20232;-76
2021/05/01 03:12:30;;;;;;;8.60;4.70;;;;;;;7.95;100.00;98708.38;10376577;28;20208;-76
2021/05/01 03:17:49;;;;;;;7.00;4.67;;;;;;;7.85;100.00;98695.47;10376766;28;20177;-77
2021/05/01 03:23:09;;;;;;;9.10;5.20;;;;;;;7.80;100.00;98697.78;10362404;28;20172;-78
2021/05/01 03:28:28;;;;;;;6.93;4.47;;;;;;;7.78;100.00;98700.94;10377438;28;20176;-76
2021/05/01 03:33:47;;;;;;;5.50;4.37;;;;;;;7.64;100.00;98703.66;10375963;28;20248;-77
2021/05/01 03:39:06;;;;;;;5.27;4.83;;;;;;;7.51;100.00;98702.44;10376999;28;20173;-76
2021/05/01 03:44:25;;;;;;;7.93;7.10;;;;;;;7.45;100.00;98698.53;10375528;28;20184;-76
2021/05/01 03:49:44;;;;;;;13.93;6.63;;;;;;;7.36;100.00;98689.13;10361687;28;20192;-76
2021/05/01 03:55:04;;;;;;;26.03;6.23;;;;;;;7.58;100.00;98677.06;10359098;28;20722;-77
2021/05/01 04:00:24;;;;;;;3.33;3.03;;;;;;;7.49;100.00;98666.50;10374932;28;20180;-76
2021/05/01 04:05:43;;;;;;;18.37;7.83;;;;;;;7.48;100.00;98673.13;10376106;28;20185;-76
2021/05/01 04:11:02;;;;;;;5.20;4.30;;;;;;;7.56;100.00;98677.44;10358628;28;20586;-76
2021/05/01 04:16:21;;;;;;;8.93;6.53;;;;;;;7.60;100.00;98670.00;10352012;28;20192;-77
2021/05/01 04:21:40;;;;;;;6.80;4.53;;;;;;;7.68;100.00;98668.84;10355642;28;20189;-77
2021/05/01 04:27:00;;;;;;;11.10;6.73;;;;;;;7.85;100.00;98679.03;10367176;28;20177;-76
2021/05/01 04:32:20;;;;;;;7.80;5.93;;;;;;;8.00;100.00;98677.84;10373476;28;20583;-77
2021/05/01 04:37:38;;;;;;;8.07;5.90;;;;;;;8.06;100.00;98690.78;10374892;28;20188;-76
2021/05/01 04:43:02;;;;;;;12.00;7.87;;;;;;;8.21;100.00;98697.06;10366481;28;20177;-76
2021/05/01 04:48:21;;;;;;;7.97;6.60;;;;;;;8.27;100.00;98703.69;10341294;28;20221;-77
2021/05/01 04:53:40;;;;;;;9.30;5.83;;;;;;;8.25;100.00;98720.53;10313792;28;20209;-78
2021/05/01 04:58:59;;;;;;;7.77;4.80;;;;;;;8.26;100.00;98713.91;10315297;28;20260;-77
2021/05/01 05:04:18;;;;;;;13.40;5.37;;;;;;;8.32;100.00;98730.72;10310819;28;20177;-77
2021/05/01 05:09:37;;;;;;;8.93;6.80;;;;;;;8.29;100.00;98731.50;10333133;28;20197;-77
2021/05/01 05:14:56;;;;;;;9.97;5.50;;;;;;;8.29;100.00;98739.72;10332148;28;20177;-76
2021/05/01 05:20:15;;;;;;;7.40;6.30;;;;;;;8.40;100.00;98726.81;10318480;28;20185;-77
2021/05/01 05:25:34;;;;;;;9.93;5.93;;;;;;;8.45;100.00;98707.22;10333225;28;20272;-77
2021/05/01 05:30:53;;;;;;;7.70;4.97;;;;;;;8.59;100.00;98701.69;10331706;28;20240;-76
2021/05/01 05:36:12;;;;;;;11.87;6.57;;;;;;;8.60;100.00;98697.78;10317669;28;20174;-78
2021/05/01 05:41:31;;;;;;;12.57;6.13;;;;;;;8.68;100.00;98693.84;10333016;28;20570;-79
2021/05/01 05:46:50;;;;;;;8.77;6.40;;;;;;;8.94;100.00;98700.44;10312750;28;20747;-77
2021/05/01 05:52:10;;;;;;;13.07;7.90;;;;;;;9.15;100.00;98705.81;10332445;28;20217;-76
2021/05/01 05:57:29;;;;;;;7.67;6.20;;;;;;;9.23;100.00;98703.84;10311400;28;20632;-78
2021/05/01 06:02:51;;;;;;;5.57;4.70;;;;;;;9.44;100.00;98704.53;10312769;28;20185;-78
2021/05/01 06:08:11;;;;;;;15.63;8.03;;;;;;;9.65;100.00;98718.13;10332423;28;20656;-79
2021/05/01 06:13:33;;;;;;;5.50;5.00;;;;;;;9.68;100.00;98717.31;10340805;28;20233;-77
2021/05/01 06:18:52;;;;;;;10.10;5.63;;;;;;;9.78;100.00;98709.00;10337900;28;20174;-79
2021/05/01 06:24:12;;;;;;;23.17;9.33;;;;;;;10.23;100.00;98720.88;10323991;28;20185;-78
2021/05/01 06:29:31;;;;;;;9.37;5.30;;;;;;;10.35;100.00;98721.16;10337815;28;20177;-78
2021/05/01 06:34:55;;;;;;;9.33;6.17;;;;;;;10.44;100.00;98710.47;10320378;28;20177;-78
2021/05/01 06:40:17;;;;;;;8.60;5.60;;;;;;;10.63;100.00;98710.66;10338751;28;20178;-78
2021/05/01 06:45:39;;;;;;;12.20;7.57;;;;;;;10.89;100.00;98703.69;10337073;28;20221;-78
2021/05/01 06:51:00;;;;;;;13.43;7.93;;;;;;;11.01;100.00;98687.44;10338212;28;20212;-78
2021/05/01 06:56:20;;;;;;;12.17;6.40;;;;;;;11.19;100.00;98677.00;10345799;28;20182;-79
2021/05/01 07:01:40;;;;;;;15.63;8.17;;;;;;;11.16;100.00;98675.84;10316911;28;20181;-78
2021/05/01 07:06:59;;;;;;;9.20;5.93;;;;;;;11.36;100.00;98687.00;10337739;28;20205;-78
2021/05/01 07:12:21;;;;;;;12.13;5.73;;;;;;;11.58;100.00;98680.81;10314634;28;20204;-78
2021/05/01 07:17:40;;;;;;;13.47;6.53;;;;;;;11.72;100.00;98697.16;10336275;28;20181;-78
2021/05/01 07:22:59;;;;;;;20.47;8.30;;;;;;;11.50;100.00;98706.09;10320075;28;20178;-77
2021/05/01 07:28:29;;;;;;;12.03;7.87;;;;;;;11.51;100.00;98678.13;10337080;28;20173;-78
2021/05/01 07:33:55;;;;;;;16.63;7.73;;;;;;;11.54;100.00;98699.38;10335664;28;20209;-78
2021/05/01 07:39:16;;;;;;;11.07;6.80;;;;;;;11.58;100.00;98688.28;10321538;28;20212;-78
2021/05/01 07:44:35;;;;;;;11.77;7.70;;;;;;;12.00;100.00;98691.19;10334991;28;20656;-78
2021/05/01 07:49:55;;;;;;;12.80;8.40;;;;;;;12.54;98.42;98687.91;10335975;28;20177;-80
2021/05/01 07:55:14;;;;;;;12.37;7.50;;;;;;;12.54;91.31;98701.69;10320821;28;20601;-77
2021/05/01 08:00:34;;;;;;;13.90;6.83;;;;;;;12.70;95.19;98703.81;10313723;28;20586;-78
2021/05/01 08:05:53;;;;;;;12.27;6.57;;;;;;;13.27;88.95;98686.53;10317480;28;20197;-78
2021/05/01 08:11:12;;;;;;;12.53;8.10;;;;;;;13.92;85.82;98693.75;10334920;28;20209;-76
2021/05/01 08:16:31;;;;;;;18.33;9.50;;;;;;;13.27;86.22;98691.25;10333970;28;20177;-79
2021/05/01 08:21:50;;;;;;;10.53;6.90;;;;;;;14.75;66.87;98688.13;10276568;28;20194;-78
2021/05/01 08:27:09;;;;;;;9.73;6.30;;;;;;;15.56;59.27;98670.75;10290070;28;20249;-79
2021/05/01 08:32:29;;;;;;;11.43;6.80;;;;;;;16.24;59.47;98663.41;10274671;28;20206;-80
2021/05/01 08:37:47;;;;;;;12.07;6.27;;;;;;;17.41;54.64;98649.34;10289402;28;20563;-79
2021/05/01 08:43:07;;;;;;;9.17;6.00;;;;;;;18.25;52.06;98671.06;10276009;28;20182;-79
2021/05/01 08:48:26;;;;;;;12.20;7.40;;;;;;;17.89;50.63;98668.88;10273819;28;20643;-81
2021/05/01 08:53:46;;;;;;;11.47;7.00;;;;;;;18.00;48.64;98669.25;10333389;28;20209;-78
2021/05/01 08:59:05;;;;;;;12.07;5.90;;;;;;;19.21;49.72;98672.88;10325215;28;20247;-79
2021/05/01 09:04:24;;;;;;;9.87;5.80;;;;;;;19.98;43.17;98665.28;10333615;28;20561;-79
2021/05/01 09:09:58;;;;;;;8.93;7.03;;;;;;;20.42;41.11;98664.28;10333479;28;20534;-80
2021/05/01 09:15:17;;;;;;;11.60;6.60;;;;;;;20.72;40.00;98656.78;10339107;28;20664;-80
2021/05/01 09:20:36;;;;;;;11.80;7.77;;;;;;;18.12;45.10;98662.81;10313216;28;20181;-79
2021/05/01 09:25:59;;;;;;;12.33;5.87;;;;;;;17.42;47.48;98661.22;10333079;28;20177;-78
2021/05/01 09:31:19;;;;;;;10.37;5.63;;;;;;;17.53;48.99;98639.34;10333121;28;21025;-78
2021/05/01 09:36:40;;;;;;;10.73;5.23;;;;;;;18.00;48.77;98640.66;10333421;28;20200;-80
2021/05/01 09:42:13;;;;;;;6.70;5.47;;;;;;;18.34;48.13;98637.66;10334225;28;20652;-78
2021/05/01 09:47:33;;;;;;;11.30;6.40;;;;;;;16.37;52.08;98647.56;10332359;28;20696;-78
2021/05/01 09:53:07;;;;;;;9.13;5.93;;;;;;;16.62;50.37;98655.81;10320299;28;20205;-78
2021/05/01 09:58:29;;;;;;;9.47;6.00;;;;;;;16.96;51.11;98653.78;10319615;28;20173;-79
2021/05/01 10:03:49;;;;;;;11.43;4.77;;;;;;;17.67;47.75;98648.69;10352991;28;20185;-78
2021/05/01 10:09:08;;;;;;;8.97;6.30;;;;;;;18.40;46.61;98646.97;10341818;28;20248;-79
2021/05/01 10:14:46;;;;;;;8.70;5.20;;;;;;;17.65;49.46;98658.75;10339556;28;20205;-79
2021/05/01 10:20:07;;;;;;;9.80;6.90;;;;;;;18.37;45.68;98637.53;10324002;28;20648;-79
2021/05/01 10:25:31;;;;;;;7.97;5.70;;;;;;;18.88;42.53;98628.13;10320201;28;20177;-78
2021/05/01 10:30:56;;;;;;;7.13;5.73;;;;;;;19.38;43.38;98616.31;10339188;28;20209;-78
2021/05/01 10:36:19;;;;;;;5.00;4.27;;;;;;;18.56;43.04;98616.81;10333964;28;20186;-78
2021/05/01 10:41:52;;;;;;;6.80;5.13;;;;;;;18.35;44.50;98617.72;10319231;28;20185;-78
2021/05/01 10:47:13;;;;;;;8.30;5.40;;;;;;;16.41;48.19;98614.88;10321419;28;20815;-78
2021/05/01 10:52:37;;;;;;;5.57;4.80;;;;;;;17.25;46.91;98596.69;10338041;28;20213;-78
2021/05/01 10:58:01;;;;;;;7.57;4.07;;;;;;;16.88;47.09;98594.91;10338088;28;20181;-78
2021/05/01 11:03:22;;;;;;;9.67;5.63;;;;;;;17.52;44.54;98584.97;10336385;28;20170;-77
2021/05/01 11:08:53;;;;;;;6.20;4.63;;;;;;;18.15;43.74;98572.78;10337836;28;20189;-78
2021/05/01 11:14:23;;;;;;;9.47;6.27;;;;;;;17.63;43.63;98578.53;10335800;28;20683;-79
2021/05/01 11:19:44;;;;;;;8.87;5.17;;;;;;;17.45;45.07;98580.44;10337726;28;20197;-79
2021/05/01 11:25:06;;;;;;;8.80;5.30;;;;;;;18.52;45.18;98575.16;10320990;28;20543;-79
2021/05/01 11:30:29;;;;;;;6.20;4.40;;;;;;;18.95;42.74;98562.91;10314809;28;20228;-80
2021/05/01 11:35:50;;;;;;;5.10;4.33;;;;;;;18.73;42.54;98565.88;10337484;28;20249;-78
2021/05/01 11:41:11;;;;;;;6.30;4.30;;;;;;;18.49;43.56;98564.97;10336753;28;20264;-76
2021/05/01 11:46:36;;;;;;;6.33;4.83;;;;;;;17.42;46.19;98561.91;10334811;28;20233;-75
2021/05/01 11:52:01;;;;;;;6.90;4.30;;;;;;;17.21;46.47;98561.91;10335686;28;20292;-75
2021/05/01 11:57:49;;;;;;;7.50;4.23;;;;;;;17.87;44.80;98562.06;10336077;28;20252;-76
2021/05/01 12:03:23;;;;;;;3.77;3.47;;;;;;;18.41;41.07;98562.94;10318659;28;20724;-75
2021/05/01 12:08:42;;;;;;;4.67;3.37;;;;;;;18.49;40.54;98553.81;10315783;28;20185;-75
2021/05/01 12:14:07;;;;;;;5.27;4.67;;;;;;;18.69;41.73;98548.53;10332755;28;20213;-76
2021/05/01 12:19:26;;;;;;;9.77;5.40;;;;;;;18.39;41.11;98547.94;10334950;28;20256;-75
2021/05/01 12:24:45;;;;;;;6.27;4.30;;;;;;;18.44;43.90;98543.28;10316010;28;20174;-76
2021/05/01 12:30:04;;;;;;;6.53;4.60;;;;;;;18.31;42.30;98546.69;10317100;28;20528;-76
2021/05/01 12:35:23;;;;;;;10.43;4.87;;;;;;;18.06;44.74;98535.81;10312440;28;20181;-75
2021/05/01 12:40:42;;;;;;;4.37;3.77;;;;;;;18.13;44.68;98544.66;10314748;28;20173;-76
2021/05/01 12:46:17;;;;;;;6.90;4.20;;;;;;;17.20;45.80;98530.56;10324872;28;20217;-76
2021/05/01 12:51:51;;;;;;;4.97;3.57;;;;;;;16.95;46.86;98529.97;10333921;28;20643;-76
2021/05/01 12:57:15;;;;;;;4.13;3.73;;;;;;;17.39;45.99;98518.31;10333880;28;20182;-75
2021/05/01 13:02:34;;;;;;;4.47;3.23;;;;;;;16.88;46.19;98522.66;10311854;28;20173;-75
2021/05/01 13:07:54;;;;;;;6.17;3.20;;;;;;;16.19;47.87;98505.78;10315875;28;20584;-75
2021/05/01 13:13:14;;;;;;;10.60;4.50;;;;;;;16.46;46.62;98515.13;10333089;28;20205;-75
2021/05/01 13:19:02;;;;;;;4.47;3.30;;;;;;;15.98;47.48;98501.00;10311721;28;20181;-76
2021/05/01 13:24:21;;;;;;;5.47;3.50;;;;;;;16.43;49.26;98496.63;10328997;28;20193;-75
2021/05/01 13:29:43;;;;;;;4.00;3.70;;;;;;;16.04;49.67;98491.63;10320702;28;20181;-75
2021/05/01 13:35:06;;;;;;;4.40;3.27;;;;;;;16.67;46.52;98494.94;10324815;28;20181;-76
2021/05/01 13:40:31;;;;;;;6.87;4.47;;;;;;;17.32;44.45;98474.13;10349474;28;20272;-75
2021/05/01 13:45:50;;;;;;;6.87;3.50;;;;;;;17.80;43.71;98471.31;10339623;28;20220;-76
2021/05/01 13:51:10;;;;;;;5.00;3.83;;;;;;;18.23;42.27;98481.41;10324978;28;20213;-76
2021/05/01 13:56:29;;;;;;;4.90;4.47;;;;;;;17.77;43.99;98472.22;10319459;28;20186;-76
2021/05/01 14:01:48;;;;;;;5.77;3.70;;;;;;;17.90;43.92;98469.31;10339086;28;20185;-76
2021/05/01 14:07:07;;;;;;;6.90;4.33;;;;;;;17.96;42.22;98468.25;10324050;28;20189;-76
2021/05/01 14:12:31;;;;;;;13.50;8.00;;;;;;;17.57;43.23;98468.31;10318169;28;20212;-76
2021/05/01 14:18:05;;;;;;;5.60;4.00;;;;;;;17.81;42.24;98466.50;10320175;28;20659;-76
2021/05/01 14:23:25;;;;;;;6.87;4.37;;;;;;;17.74;42.60;98456.44;10339675;28;20650;-76
2021/05/01 14:28:44;;;;;;;4.73;3.27;;;;;;;18.02;41.14;98458.03;10339358;28;20205;-75
2021/05/01 14:34:03;;;;;;;3.00;2.43;;;;;;;18.05;42.03;98450.75;10322168;28;20205;-76
2021/05/01 14:39:22;;;;;;;4.10;3.70;;;;;;;17.82;41.82;98451.38;10316290;28;20174;-76
2021/05/01 14:44:42;;;;;;;3.90;3.40;;;;;;;17.49;44.19;98436.47;10337306;28;20177;-75
2021/05/01 14:50:02;;;;;;;3.83;3.17;;;;;;;17.69;42.85;98443.16;10246236;29;20194;-76
2021/05/01 14:55:28;;;;;;;2.90;2.60;;;;;;;17.23;45.04;98437.91;10240094;29;20261;-77
2021/05/01 15:00:47;;;;;;;4.30;3.90;;;;;;;17.13;44.34;98430.78;10252513;29;20183;-77
2021/05/01 15:06:07;;;;;;;2.73;2.53;;;;;;;16.97;39.44;98436.56;10259939;28;20203;-77
2021/05/01 15:11:31;;;;;;;5.83;3.20;;;;;;;16.53;43.33;98434.34;10253036;29;20236;-77
2021/05/01 15:16:59;;;;;;;3.80;2.90;;;;;;;16.26;47.17;98422.28;10265419;28;20194;-76
2021/05/01 15:22:18;;;;;;;2.83;2.53;;;;;;;16.69;47.33;98425.03;10337488;28;20185;-77
2021/05/01 15:27:37;;;;;;;7.73;3.23;;;;;;;16.80;45.40;98428.94;10337165;28;20628;-78
2021/05/01 15:32:58;;;;;;;3.53;3.23;;;;;;;16.81;45.70;98416.59;10335273;28;20205;-78
2021/05/01 15:38:17;;;;;;;4.27;2.70;;;;;;;16.88;45.85;98410.75;10337712;28;20177;-77
2021/05/01 15:43:38;;;;;;;4.07;3.30;;;;;;;16.59;47.12;98415.09;10317129;28;20177;-77
2021/05/01 15:48:57;;;;;;;4.67;3.23;;;;;;;16.57;46.25;98425.88;10317399;28;20248;-77
2021/05/01 15:54:16;;;;;;;2.60;2.40;;;;;;;16.35;46.04;98403.72;10335198;28;20727;-77
2021/05/01 15:59:37;;;;;;;2.80;2.60;;;;;;;16.27;46.15;98407.97;10334800;28;20174;-77
2021/05/01 16:04:56;;;;;;;3.40;3.10;;;;;;;15.98;49.07;98409.44;10335681;28;20198;-77
2021/05/01 16:10:18;;;;;;;4.00;3.60;;;;;;;15.82;51.53;98406.06;10320407;28;20205;-77
2021/05/01 16:15:38;;;;;;;3.57;3.27;;;;;;;15.62;50.26;98395.25;10314072;28;20649;-76
2021/05/01 16:20:56;;;;;;;8.67;4.90;;;;;;;15.57;50.40;98395.84;10317610;28;20181;-76
2021/05/01 16:26:15;;;;;;;4.10;3.23;;;;;;;15.57;50.56;98395.06;10333794;28;20181;-76
2021/05/01 16:31:34;;;;;;;3.27;2.93;;;;;;;15.65;50.03;98402.69;10333144;28;20614;-78
2021/05/01 16:36:53;;;;;;;6.70;3.60;;;;;;;15.61;49.55;98395.72;10316721;28;20255;-77
2021/05/01 16:42:13;;;;;;;4.27;2.93;;;;;;;15.61;49.41;98388.16;10318910;28;20173;-77
2021/05/01 16:47:32;;;;;;;3.30;3.10;;;;;;;15.68;49.07;98385.16;10340341;28;20221;-78
2021/05/01 16:52:50;;;;;;;3.37;3.07;;;;;;;15.64;48.97;98370.66;10374430;28;20299;-77
2021/05/01 16:58:10;;;;;;;6.37;4.23;;;;;;;15.26;49.88;98360.91;10374625;28;20223;-78
2021/05/01 17:03:29;;;;;;;3.13;2.83;;;;;;;15.08;51.14;98362.69;10372658;28;20204;-77
2021/05/01 17:08:48;;;;;;;4.37;3.67;;;;;;;15.06;50.09;98370.66;10355225;28;20173;-78
2021/05/01 17:14:07;;;;;;;3.53;3.17;;;;;;;14.94;50.92;98363.16;10372307;28;20574;-78
2021/05/01 17:19:27;;;;;;;3.83;3.07;;;;;;;14.99;50.53;98362.59;10373830;28;20184;-78
2021/05/01 17:24:46;;;;;;;3.70;2.83;;;;;;;14.98;53.53;98363.81;10354982;28;20180;-77
2021/05/01 17:30:06;;;;;;;9.77;4.27;;;;;;;14.78;54.93;98377.13;10372422;28;20180;-78
2021/05/01 17:35:25;;;;;;;3.40;2.57;;;;;;;14.48;58.08;98374.88;10374040;28;20180;-77
2021/05/01 17:40:45;;;;;;;5.17;3.67;;;;;;;14.39;59.67;98377.53;10373642;28;20298;-76
2021/05/01 17:46:04;;;;;;;3.57;3.27;;;;;;;14.18;59.37;98383.72;10359210;28;20221;-77
2021/05/01 17:51:23;;;;;;;4.40;3.60;;;;;;;14.01;59.81;98379.44;10332642;28;20205;-77
2021/05/01 17:56:43;;;;;;;10.90;4.23;;;;;;;13.72;60.66;98377.88;10313283;28;20206;-77
2021/05/01 18:02:02;;;;;;;10.83;5.20;;;;;;;13.73;60.80;98385.75;10331502;28;20206;-76
2021/05/01 18:07:21;;;;;;;8.40;5.60;;;;;;;13.62;61.37;98385.28;10332528;28;20273;-77
2021/05/01 18:12:41;;;;;;;7.17;5.33;;;;;;;13.52;62.69;98382.00;10334848;28;20213;-77
2021/05/01 18:18:00;;;;;;;7.17;5.00;;;;;;;13.31;63.77;98386.09;10338412;28;20181;-76
2021/05/01 18:23:19;;;;;;;7.43;3.90;;;;;;;13.13;63.51;98379.47;10339645;28;20174;-77
2021/05/01 18:28:38;;;;;;;6.53;3.13;;;;;;;13.01;64.05;98385.69;10339197;28;20212;-76
2021/05/01 18:33:58;;;;;;;4.83;3.70;;;;;;;13.02;64.21;98387.25;10338558;28;20723;-75
2021/05/01 18:39:17;;;;;;;10.00;4.13;;;;;;;12.86;64.85;98392.72;10338962;28;20177;-76
2021/05/01 18:44:36;;;;;;;11.43;3.93;;;;;;;12.85;65.43;98402.22;10336910;28;20177;-76
2021/05/01 18:49:55;;;;;;;5.37;4.20;;;;;;;12.87;65.95;98410.84;10338727;28;20609;-76
2021/05/01 18:55:14;;;;;;;8.20;4.70;;;;;;;12.89;66.66;98414.00;10338459;28;20181;-77
2021/05/01 19:00:34;;;;;;;6.80;4.57;;;;;;;12.91;68.35;98417.09;10336703;28;20581;-75
2021/05/01 19:05:52;;;;;;;6.67;4.63;;;;;;;12.89;70.31;98419.50;10338120;28;20177;-76
2021/05/01 19:11:12;;;;;;;9.37;5.63;;;;;;;12.78;71.85;98427.22;10337839;28;20671;-74
2021/05/01 19:16:33;;;;;;;12.93;6.47;;;;;;;12.73;72.29;98427.75;10315537;28;20185;-75
2021/05/01 19:21:56;;;;;;;7.40;4.50;;;;;;;12.71;72.23;98435.66;10337434;28;20653;-75
2021/05/01 19:27:16;;;;;;;6.33;4.87;;;;;;;12.57;71.76;98436.00;10337259;28;20182;-75
2021/05/01 19:32:40;;;;;;;7.63;4.93;;;;;;;12.35;76.10;98439.63;10335416;28;20691;-75
2021/05/01 19:37:59;;;;;;;9.60;5.83;;;;;;;12.24;78.74;98442.63;10336987;28;20212;-76
2021/05/01 19:43:20;;;;;;;10.07;7.33;;;;;;;12.16;83.08;98443.16;10331038;28;20185;-75
2021/05/01 19:48:46;;;;;;;7.50;5.57;;;;;;;12.17;93.76;98445.53;10334329;28;20217;-76
2021/05/01 19:54:06;;;;;;;6.73;5.30;;;;;;;12.09;98.44;98441.34;10319289;28;20225;-76
2021/05/01 19:59:26;;;;;;;9.47;5.73;;;;;;;12.01;100.00;98450.16;10333960;28;20258;-75
2021/05/01 20:04:45;;;;;;;6.40;4.63;;;;;;;11.91;100.00;98450.38;10335621;28;20694;-75
2021/05/01 20:10:05;;;;;;;9.43;5.60;;;;;;;11.80;100.00;98449.78;10335594;28;20181;-74
2021/05/01 20:15:26;;;;;;;5.10;3.87;;;;;;;11.67;100.00;98460.66;10312489;28;20209;-74
2021/05/01 20:20:45;;;;;;;7.03;5.30;;;;;;;11.63;100.00;98453.69;10335011;28;20177;-75
2021/05/01 20:26:04;;;;;;;6.80;5.10;;;;;;;11.56;100.00;98440.00;10334955;28;20185;-73
2021/05/01 20:31:23;;;;;;;8.33;5.80;;;;;;;11.47;100.00;98440.53;10333325;28;20209;-75
2021/05/01 20:36:42;;;;;;;8.30;5.07;;;;;;;11.35;100.00;98443.13;10344633;28;20256;-76
2021/05/01 20:42:01;;;;;;;5.43;4.30;;;;;;;11.32;100.00;98438.44;10326500;28;20209;-75
2021/05/01 20:47:20;;;;;;;6.50;5.90;;;;;;;11.26;100.00;98445.63;10337128;28;20216;-75
2021/05/01 20:52:39;;;;;;;12.93;6.10;;;;;;;11.23;100.00;98429.94;10354331;28;20209;-75
2021/05/01 20:57:58;;;;;;;5.90;5.40;;;;;;;11.23;100.00;98429.94;10357242;28;20181;-75
2021/05/01 21:03:18;;;;;;;9.77;6.53;;;;;;;11.18;100.00;98433.16;10373133;28;20204;-76
2021/05/01 21:08:37;;;;;;;7.83;5.27;;;;;;;11.16;100.00;98438.31;10374232;28;20181;-76
2021/05/01 21:13:56;;;;;;;8.03;5.60;;;;;;;10.96;100.00;98434.72;10372964;28;20212;-76
2021/05/01 21:19:15;;;;;;;9.20;6.07;;;;;;;10.86;100.00;98434.88;10358869;28;20177;-76
2021/05/01 21:24:34;;;;;;;6.80;5.37;;;;;;;10.51;100.00;98433.41;10373989;28;20169;-75
2021/05/01 21:29:53;;;;;;;9.13;6.37;;;;;;;10.48;100.00;98428.75;10354202;28;20180;-76
2021/05/01 21:35:12;;;;;;;8.27;5.50;;;;;;;10.27;100.00;98442.00;10373809;28;20192;-76
2021/05/01 21:40:31;;;;;;;7.37;5.47;;;;;;;10.29;100.00;98434.13;10373562;28;20194;-74
2021/05/01 21:45:50;;;;;;;5.10;4.60;;;;;;;10.32;100.00;98435.28;10362803;28;20225;-78
2021/05/01 21:51:14;;;;;;;12.80;7.57;;;;;;;10.31;100.00;98428.22;10340922;28;20217;-77
2021/05/01 21:56:33;;;;;;;9.00;5.30;;;;;;;10.29;100.00;98425.88;10340817;28;20181;-77
2021/05/01 22:01:52;;;;;;;7.93;5.23;;;;;;;10.03;100.00;98434.06;10339263;28;20189;-74
2021/05/01 22:07:13;;;;;;;12.37;6.67;;;;;;;10.05;100.00;98416.00;10340489;28;20173;-75
2021/05/01 22:12:33;;;;;;;12.63;7.90;;;;;;;9.79;100.00;98410.38;10319231;28;20674;-75
2021/05/01 22:17:52;;;;;;;11.30;7.17;;;;;;;9.75;100.00;98420.63;10338686;28;20256;-74
2021/05/01 22:28:41;;;;;;;14.63;8.07;;;;;;;9.62;100.00;98425.88;10339024;28;20173;-75
2021/05/01 22:34:01;;;;;;;8.37;6.23;;;;;;;9.60;100.00;98419.25;10338979;28;20629;-74
2021/05/01 22:39:20;;;;;;;12.27;7.20;;;;;;;9.55;100.00;98428.69;10339187;28;20185;-76
2021/05/01 22:44:39;;;;;;;19.03;8.27;;;;;;;9.53;100.00;98433.00;10317547;28;20170;-75
2021/05/01 22:49:58;;;;;;;9.93;6.63;;;;;;;9.47;100.00;98439.38;10338900;28;20181;-76
2021/05/01 22:55:17;;;;;;;7.00;5.40;;;;;;;9.52;100.00;98436.97;10338590;28;20567;-76
2021/05/01 23:00:36;;;;;;;14.57;7.20;;;;;;;9.56;100.00;98429.47;10336725;28;20197;-77
2021/05/01 23:05:57;;;;;;;15.50;7.30;;;;;;;9.48;100.00;98427.97;10320530;28;20213;-76
2021/05/01 23:11:19;;;;;;;10.07;6.50;;;;;;;9.37;100.00;98430.03;10332159;28;20208;-76
2021/05/01 23:16:39;;;;;;;14.20;7.40;;;;;;;9.19;100.00;98434.13;10336602;28;20264;-75
2021/05/01 23:21:59;;;;;;;9.60;6.63;;;;;;;9.23;100.00;98434.91;10337892;28;20181;-76
2021/05/01 23:27:20;;;;;;;15.47;8.70;;;;;;;9.15;100.00;98431.41;10337500;28;20173;-75
2021/05/01 23:32:39;;;;;;;18.37;8.57;;;;;;;9.17;100.00;98436.50;10335492;28;20216;-76
2021/05/01 23:38:01;;;;;;;13.83;7.43;;;;;;;9.14;100.00;98438.09;10319837;28;20561;-75
2021/05/01 23:43:20;;;;;;;6.47;5.73;;;;;;;9.20;100.00;98430.22;10336636;28;20185;-75
2021/05/01 23:48:47;;;;;;;14.10;8.40;;;;;;;9.23;100.00;98432.16;10334820;28;20221;-74
2021/05/01 23:54:07;;;;;;;9.27;5.40;;;;;;;9.23;100.00;98441.16;10328640;28;20209;-76
2021/05/01 23:59:26;;;;;;;8.93;7.03;;;;;;;9.27;100.00;98441.91;10313003;28;20197;-74
